createdAt,value
2023-02-21T00:00:09.190Z,26.11
2023-02-21T00:01:08.078Z,26.14
2023-02-21T00:02:08.062Z,26.14
2023-02-21T00:03:07.970Z,26.11
2023-02-21T00:04:07.936Z,26.14
2023-02-21T00:05:07.897Z,26.11
2023-02-21T00:06:07.909Z,26.09
2023-02-21T00:07:07.874Z,26.11
2023-02-21T00:08:07.721Z,26.12
2023-02-21T00:09:07.716Z,26.09
2023-02-21T00:10:07.635Z,26.09
2023-02-21T00:11:07.561Z,26.11
2023-02-21T00:12:07.552Z,26.11
2023-02-21T00:13:07.506Z,26.11
2023-02-21T00:14:07.441Z,26.12
2023-02-21T00:15:07.461Z,26.09
2023-02-21T00:16:07.330Z,26.11
2023-02-21T00:17:07.264Z,26.11
2023-02-21T00:18:07.210Z,26.11
2023-02-21T00:19:07.168Z,26.11
2023-02-21T00:20:07.116Z,26.14
2023-02-21T00:21:07.149Z,26.11
2023-02-21T00:22:07.025Z,26.11
2023-02-21T00:23:06.950Z,26.12
2023-02-21T00:24:06.896Z,26.12
2023-02-21T00:25:07.657Z,26.12
2023-02-21T00:26:06.827Z,26.15
2023-02-21T00:27:07.734Z,26.12
2023-02-21T00:28:06.867Z,26.12
2023-02-21T00:29:06.854Z,26.15
2023-02-21T00:30:06.649Z,26.11
2023-02-21T00:31:06.565Z,26.11
2023-02-21T00:32:06.470Z,26.15
2023-02-21T00:33:07.337Z,26.14
2023-02-21T00:34:06.371Z,26.12
2023-02-21T00:35:06.322Z,26.14
2023-02-21T00:36:06.264Z,26.12
2023-02-21T00:37:06.252Z,26.14
2023-02-21T00:38:06.161Z,26.11
2023-02-21T00:39:06.174Z,26.12
2023-02-21T00:40:06.038Z,26.11
2023-02-21T00:41:06.024Z,26.12
2023-02-21T00:42:05.927Z,26.12
2023-02-21T00:43:05.928Z,26.15
2023-02-21T00:44:05.842Z,26.12
2023-02-21T00:45:05.816Z,26.14
2023-02-21T00:46:06.949Z,26.15
2023-02-21T00:47:06.816Z,26.15
2023-02-21T00:48:05.617Z,26.14
2023-02-21T00:49:05.595Z,26.15
2023-02-21T00:50:05.521Z,26.16
2023-02-21T00:51:05.489Z,26.15
2023-02-21T00:52:05.395Z,26.16
2023-02-21T00:53:05.372Z,26.18
2023-02-21T00:54:05.306Z,26.16
2023-02-21T00:55:05.253Z,26.16
2023-02-21T00:56:05.256Z,26.16
2023-02-21T00:57:05.133Z,26.15
2023-02-21T00:58:05.108Z,26.15
2023-02-21T00:59:05.045Z,26.15
2023-02-21T01:00:05.191Z,26.15
2023-02-21T01:01:04.966Z,26.11
2023-02-21T01:02:04.881Z,26.15
2023-02-21T01:03:05.665Z,26.15
2023-02-21T01:04:04.832Z,26.15
2023-02-21T01:05:04.737Z,26.14
2023-02-21T01:06:04.740Z,26.16
2023-02-21T01:07:04.616Z,26.15
2023-02-21T01:08:04.591Z,26.16
2023-02-21T01:09:04.531Z,26.16
2023-02-21T01:10:04.478Z,26.12
2023-02-21T01:11:04.439Z,26.14
2023-02-21T01:12:04.364Z,26.14
2023-02-21T01:13:04.361Z,26.14
2023-02-21T01:14:04.252Z,26.14
2023-02-21T01:15:04.226Z,26.15
2023-02-21T01:16:04.217Z,26.12
2023-02-21T01:17:12.853Z,26.14
2023-02-21T01:18:05.078Z,26.11
2023-02-21T01:19:04.015Z,26.14
2023-02-21T01:20:04.993Z,26.14
2023-02-21T01:21:03.887Z,26.14
2023-02-21T01:22:03.822Z,26.12
2023-02-21T01:23:03.778Z,26.15
2023-02-21T01:24:03.757Z,26.14
2023-02-21T01:25:03.711Z,26.14
2023-02-21T01:26:03.627Z,26.14
2023-02-21T01:27:03.564Z,26.14
2023-02-21T01:28:03.491Z,26.12
2023-02-21T01:29:03.469Z,26.15
2023-02-21T01:30:03.587Z,26.14
2023-02-21T01:31:03.385Z,26.14
2023-02-21T01:32:03.352Z,26.14
2023-02-21T01:33:03.249Z,26.12
2023-02-21T01:34:03.183Z,26.14
2023-02-21T01:35:03.111Z,26.12
2023-02-21T01:36:03.108Z,26.14
2023-02-21T01:37:02.999Z,26.11
2023-02-21T01:38:02.956Z,26.14
2023-02-21T01:39:02.886Z,26.12
2023-02-21T01:40:02.866Z,26.14
2023-02-21T01:41:03.688Z,26.12
2023-02-21T01:42:02.742Z,26.11
2023-02-21T01:43:02.720Z,26.12
2023-02-21T01:44:02.627Z,26.12
2023-02-21T01:45:02.593Z,26.12
2023-02-21T01:46:02.618Z,26.11
2023-02-21T01:47:02.462Z,26.12
2023-02-21T01:48:02.405Z,26.09
2023-02-21T01:49:02.391Z,26.12
2023-02-21T01:50:02.330Z,26.12
2023-02-21T01:51:02.248Z,26.12
2023-02-21T01:52:02.210Z,26.09
2023-02-21T01:53:02.132Z,26.11
2023-02-21T01:54:02.082Z,26.08
2023-02-21T01:55:02.085Z,26.12
2023-02-21T01:56:01.981Z,26.11
2023-02-21T01:57:01.941Z,26.11
2023-02-21T01:58:03.176Z,26.12
2023-02-21T01:59:02.013Z,26.11
2023-02-21T02:00:02.000Z,26.11
2023-02-21T02:01:01.937Z,26.15
2023-02-21T02:02:01.846Z,26.11
2023-02-21T02:03:01.803Z,26.11
2023-02-21T02:04:01.741Z,26.12
2023-02-21T02:05:01.700Z,26.11
2023-02-21T02:06:01.652Z,26.11
2023-02-21T02:07:01.605Z,26.11
2023-02-21T02:08:01.541Z,26.14
2023-02-21T02:09:01.565Z,26.11
2023-02-21T02:10:01.428Z,26.11
2023-02-21T02:11:01.373Z,26.12
2023-02-21T02:12:01.330Z,26.11
2023-02-21T02:13:01.259Z,26.11
2023-02-21T02:14:01.246Z,26.09
2023-02-21T02:15:01.233Z,26.11
2023-02-21T02:16:01.181Z,26.12
2023-02-21T02:17:03.604Z,26.12
2023-02-21T02:18:01.327Z,26.14
2023-02-21T02:19:01.189Z,26.11
2023-02-21T02:20:01.200Z,26.14
2023-02-21T02:21:01.124Z,26.14
2023-02-21T02:22:01.047Z,26.11
2023-02-21T02:23:00.993Z,26.12
2023-02-21T02:24:00.930Z,26.11
2023-02-21T02:25:00.956Z,26.12
2023-02-21T02:26:00.836Z,26.12
2023-02-21T02:27:00.834Z,26.12
2023-02-21T02:28:00.780Z,26.11
2023-02-21T02:29:00.661Z,26.14
2023-02-21T02:30:00.636Z,26.14
2023-02-21T02:31:00.766Z,26.09
2023-02-21T02:32:00.620Z,26.12
2023-02-21T02:33:00.498Z,26.09
2023-02-21T02:34:00.396Z,26.09
2023-02-21T02:35:00.366Z,25.92
2023-02-21T02:36:00.741Z,25.87
2023-02-21T02:37:00.227Z,25.79
2023-02-21T02:38:00.234Z,25.83
2023-02-21T02:39:00.140Z,25.73
2023-02-21T02:40:00.122Z,25.67
2023-02-21T02:41:00.030Z,25.56
2023-02-21T02:41:59.984Z,25.52
2023-02-21T02:42:59.929Z,25.46
2023-02-21T02:43:59.985Z,25.43
2023-02-21T02:44:59.834Z,25.32
2023-02-21T02:45:59.873Z,25.29
2023-02-21T02:46:59.739Z,25.25
2023-02-21T02:47:59.685Z,25.18
2023-02-21T02:48:59.644Z,25.19
2023-02-21T02:49:59.596Z,25.18
2023-02-21T02:51:00.217Z,25.12
2023-02-21T02:51:59.558Z,25.04
2023-02-21T02:52:59.459Z,25.05
2023-02-21T02:53:59.425Z,25.07
2023-02-21T02:54:59.379Z,25.01
2023-02-21T02:56:00.221Z,25.02
2023-02-21T02:56:59.265Z,25.02
2023-02-21T02:57:59.242Z,24.95
2023-02-21T02:58:59.231Z,24.97
2023-02-21T02:59:59.145Z,24.92
2023-02-21T03:00:59.136Z,24.95
2023-02-21T03:01:59.076Z,24.98
2023-02-21T03:02:59.007Z,24.97
2023-02-21T03:03:59.007Z,24.91
2023-02-21T03:04:58.910Z,24.94
2023-02-21T03:05:58.905Z,24.90
2023-02-21T03:06:58.841Z,24.88
2023-02-21T03:07:58.818Z,24.85
2023-02-21T03:08:58.758Z,24.84
2023-02-21T03:09:58.694Z,24.87
2023-02-21T03:10:58.665Z,24.82
2023-02-21T03:11:58.654Z,24.78
2023-02-21T03:12:59.226Z,24.78
2023-02-21T03:13:58.514Z,24.81
2023-02-21T03:14:58.508Z,24.87
2023-02-21T03:15:58.507Z,24.82
2023-02-21T03:16:58.817Z,24.81
2023-02-21T03:17:58.380Z,24.84
2023-02-21T03:18:58.298Z,24.80
2023-02-21T03:19:58.249Z,24.82
2023-02-21T03:20:58.217Z,24.78
2023-02-21T03:21:58.183Z,24.75
2023-02-21T03:22:58.190Z,24.78
2023-02-21T03:23:58.115Z,24.81
2023-02-21T03:24:58.058Z,24.75
2023-02-21T03:25:58.007Z,24.74
2023-02-21T03:26:57.985Z,24.74
2023-02-21T03:27:57.951Z,24.71
2023-02-21T03:28:57.975Z,24.75
2023-02-21T03:29:57.910Z,24.71
2023-02-21T03:30:57.844Z,24.77
2023-02-21T03:31:57.857Z,24.71
2023-02-21T03:32:57.758Z,24.70
2023-02-21T03:33:57.716Z,24.68
2023-02-21T03:34:57.662Z,24.71
2023-02-21T03:35:57.664Z,24.70
2023-02-21T03:36:58.648Z,24.73
2023-02-21T03:37:57.549Z,24.70
2023-02-21T03:38:57.548Z,24.66
2023-02-21T03:39:57.548Z,24.68
2023-02-21T03:40:57.441Z,24.64
2023-02-21T03:41:57.466Z,24.68
2023-02-21T03:42:57.418Z,24.68
2023-02-21T03:43:57.343Z,24.63
2023-02-21T03:44:57.284Z,24.64
2023-02-21T03:45:57.252Z,24.59
2023-02-21T03:46:57.285Z,24.62
2023-02-21T03:47:57.189Z,24.60
2023-02-21T03:48:57.133Z,24.62
2023-02-21T03:49:57.139Z,24.60
2023-02-21T03:50:57.080Z,24.57
2023-02-21T03:51:57.039Z,24.59
2023-02-21T03:52:57.009Z,24.59
2023-02-21T03:53:56.968Z,24.60
2023-02-21T03:54:56.925Z,24.57
2023-02-21T03:55:57.920Z,24.56
2023-02-21T03:56:56.841Z,24.62
2023-02-21T03:57:56.876Z,24.60
2023-02-21T03:58:56.931Z,24.53
2023-02-21T03:59:56.732Z,24.57
2023-02-21T04:00:56.727Z,24.54
2023-02-21T04:01:56.702Z,24.59
2023-02-21T04:02:56.640Z,24.53
2023-02-21T04:03:56.613Z,24.53
2023-02-21T04:04:56.558Z,24.52
2023-02-21T04:05:56.524Z,24.52
2023-02-21T04:06:57.241Z,24.52
2023-02-21T04:07:56.496Z,24.49
2023-02-21T04:08:56.408Z,24.54
2023-02-21T04:09:56.405Z,24.52
2023-02-21T04:10:56.328Z,24.50
2023-02-21T04:11:56.319Z,24.52
2023-02-21T04:12:56.275Z,24.52
2023-02-21T04:13:56.232Z,24.52
2023-02-21T04:14:56.177Z,24.50
2023-02-21T04:15:56.246Z,24.52
2023-02-21T04:16:56.090Z,24.46
2023-02-21T04:17:56.053Z,24.54
2023-02-21T04:18:56.020Z,24.42
2023-02-21T04:19:56.006Z,24.43
2023-02-21T04:20:55.934Z,24.50
2023-02-21T04:21:55.962Z,24.46
2023-02-21T04:23:03.126Z,24.52
2023-02-21T04:23:56.820Z,24.53
2023-02-21T04:24:55.786Z,24.40
2023-02-21T04:25:55.757Z,24.52
2023-02-21T04:26:55.729Z,24.50
2023-02-21T04:27:55.714Z,24.42
2023-02-21T04:28:55.654Z,24.46
2023-02-21T04:29:55.592Z,24.40
2023-02-21T04:30:55.560Z,24.43
2023-02-21T04:31:55.655Z,24.47
2023-02-21T04:32:55.494Z,24.44
2023-02-21T04:34:10.589Z,24.50
2023-02-21T04:34:56.406Z,24.44
2023-02-21T04:35:55.468Z,24.42
2023-02-21T04:36:55.332Z,24.43
2023-02-21T04:37:55.333Z,24.37
2023-02-21T04:38:55.262Z,24.44
2023-02-21T04:39:55.232Z,24.43
2023-02-21T04:40:55.231Z,24.39
2023-02-21T04:41:55.222Z,24.37
2023-02-21T04:42:55.195Z,24.39
2023-02-21T04:43:55.111Z,24.40
2023-02-21T04:45:00.330Z,24.42
2023-02-21T04:45:56.205Z,24.39
2023-02-21T04:46:55.026Z,24.37
2023-02-21T04:47:55.037Z,24.37
2023-02-21T04:48:54.983Z,24.35
2023-02-21T04:49:54.975Z,24.37
2023-02-21T04:50:59.115Z,24.36
2023-02-21T04:51:55.838Z,24.37
2023-02-21T04:52:55.834Z,24.37
2023-02-21T04:53:54.789Z,24.40
2023-02-21T04:54:54.939Z,24.37
2023-02-21T04:55:55.321Z,24.39
2023-02-21T04:56:54.708Z,24.43
2023-02-21T04:57:54.640Z,24.36
2023-02-21T04:58:54.616Z,24.36
2023-02-21T04:59:54.566Z,24.30
2023-02-21T05:00:54.542Z,24.36
2023-02-21T05:01:54.523Z,24.37
2023-02-21T05:02:54.472Z,24.35
2023-02-21T05:03:54.475Z,24.33
2023-02-21T05:04:54.454Z,24.35
2023-02-21T05:05:54.375Z,24.32
2023-02-21T05:06:55.381Z,24.35
2023-02-21T05:07:54.314Z,24.36
2023-02-21T05:08:54.375Z,24.39
2023-02-21T05:09:54.245Z,24.39
2023-02-21T05:10:54.212Z,24.35
2023-02-21T05:11:54.255Z,24.32
2023-02-21T05:12:54.135Z,24.29
2023-02-21T05:13:54.125Z,24.30
2023-02-21T05:14:55.129Z,24.35
2023-02-21T05:15:54.109Z,24.29
2023-02-21T05:16:54.054Z,24.30
2023-02-21T05:17:54.000Z,24.32
2023-02-21T05:18:53.975Z,24.30
2023-02-21T05:19:53.928Z,24.32
2023-02-21T05:20:54.791Z,24.32
2023-02-21T05:21:53.853Z,24.36
2023-02-21T05:22:55.961Z,24.35
2023-02-21T05:23:53.818Z,24.30
2023-02-21T05:24:53.765Z,24.32
2023-02-21T05:25:53.739Z,24.30
2023-02-21T05:26:53.749Z,24.35
2023-02-21T05:27:53.709Z,24.33
2023-02-21T05:28:53.716Z,24.33
2023-02-21T05:29:53.657Z,24.35
2023-02-21T05:30:53.718Z,24.30
2023-02-21T05:31:53.565Z,24.29
2023-02-21T05:32:53.527Z,24.32
2023-02-21T05:33:53.540Z,24.28
2023-02-21T05:34:53.541Z,24.26
2023-02-21T05:35:53.420Z,24.26
2023-02-21T05:36:53.380Z,24.30
2023-02-21T05:37:53.349Z,24.28
2023-02-21T05:38:53.347Z,24.25
2023-02-21T05:39:53.354Z,24.32
2023-02-21T05:40:53.246Z,24.29
2023-02-21T05:41:53.217Z,24.26
2023-02-21T05:42:53.183Z,24.26
2023-02-21T05:43:53.155Z,24.23
2023-02-21T05:44:53.117Z,24.23
2023-02-21T05:45:53.108Z,24.25
2023-02-21T05:46:53.060Z,24.25
2023-02-21T05:47:53.070Z,24.18
2023-02-21T05:48:52.982Z,24.26
2023-02-21T05:49:52.983Z,24.29
2023-02-21T05:50:52.901Z,24.23
2023-02-21T05:51:52.904Z,24.23
2023-02-21T05:52:52.838Z,24.26
2023-02-21T05:53:52.873Z,24.28
2023-02-21T05:54:52.784Z,24.28
2023-02-21T05:55:52.755Z,24.28
2023-02-21T05:56:52.721Z,24.30
2023-02-21T05:57:52.764Z,24.26
2023-02-21T05:58:52.641Z,24.23
2023-02-21T05:59:52.628Z,24.23
2023-02-21T06:00:52.575Z,24.26
2023-02-21T06:01:52.554Z,24.26
2023-02-21T06:02:52.567Z,24.19
2023-02-21T06:03:52.534Z,24.30
2023-02-21T06:04:52.467Z,24.23
2023-02-21T06:05:52.473Z,24.22
2023-02-21T06:06:52.382Z,24.28
2023-02-21T06:07:52.355Z,24.25
2023-02-21T06:08:52.325Z,24.26
2023-02-21T06:09:52.347Z,24.30
2023-02-21T06:10:52.362Z,24.36
2023-02-21T06:11:52.211Z,24.43
2023-02-21T06:12:52.175Z,24.47
2023-02-21T06:13:52.146Z,24.52
2023-02-21T06:14:52.117Z,24.60
2023-02-21T06:15:52.172Z,24.63
2023-02-21T06:16:52.075Z,24.66
2023-02-21T06:17:52.006Z,24.71
2023-02-21T06:18:51.977Z,24.73
2023-02-21T06:19:51.944Z,24.77
2023-02-21T06:20:51.913Z,24.82
2023-02-21T06:21:51.850Z,24.85
2023-02-21T06:22:51.877Z,24.87
2023-02-21T06:23:51.792Z,24.91
2023-02-21T06:24:52.263Z,24.97
2023-02-21T06:25:51.715Z,24.97
2023-02-21T06:26:51.658Z,25.01
2023-02-21T06:27:51.682Z,25.04
2023-02-21T06:28:51.589Z,25.08
2023-02-21T06:29:51.543Z,25.08
2023-02-21T06:30:51.738Z,25.11
2023-02-21T06:31:51.573Z,25.14
2023-02-21T06:32:51.429Z,25.12
2023-02-21T06:33:52.306Z,25.15
2023-02-21T06:34:51.334Z,25.17
2023-02-21T06:35:51.298Z,25.19
2023-02-21T06:36:51.274Z,25.19
2023-02-21T06:37:51.241Z,25.22
2023-02-21T06:38:51.301Z,25.23
2023-02-21T06:39:51.148Z,25.25
2023-02-21T06:40:51.669Z,25.22
2023-02-21T06:41:51.114Z,25.19
2023-02-21T06:42:51.018Z,25.09
2023-02-21T06:43:51.019Z,25.11
2023-02-21T06:44:50.998Z,25.08
2023-02-21T06:45:51.992Z,25.11
2023-02-21T06:46:50.897Z,25.09
2023-02-21T06:47:50.936Z,25.11
2023-02-21T06:48:50.805Z,25.04
2023-02-21T06:49:51.305Z,25.02
2023-02-21T06:50:50.713Z,25.02
2023-02-21T06:51:50.671Z,24.94
2023-02-21T06:52:50.620Z,24.88
2023-02-21T06:53:50.571Z,24.88
2023-02-21T06:54:50.604Z,24.87
2023-02-21T06:55:50.544Z,24.82
2023-02-21T06:56:50.457Z,24.81
2023-02-21T06:57:50.499Z,24.87
2023-02-21T06:58:50.392Z,24.84
2023-02-21T06:59:50.459Z,24.92
2023-02-21T07:00:50.324Z,24.97
2023-02-21T07:01:50.410Z,25.05
2023-02-21T07:02:50.225Z,25.08
2023-02-21T07:03:50.187Z,25.07
2023-02-21T07:04:50.227Z,25.15
2023-02-21T07:05:50.114Z,25.15
2023-02-21T07:06:50.077Z,25.23
2023-02-21T07:07:50.023Z,25.30
2023-02-21T07:08:50.017Z,25.40
2023-02-21T07:09:50.813Z,25.45
2023-02-21T07:10:49.923Z,25.45
2023-02-21T07:11:49.861Z,25.43
2023-02-21T07:12:49.890Z,25.23
2023-02-21T07:13:49.779Z,25.01
2023-02-21T07:14:50.351Z,24.80
2023-02-21T07:15:50.876Z,24.52
2023-02-21T07:16:49.804Z,24.33
2023-02-21T07:17:49.827Z,24.13
2023-02-21T07:18:50.730Z,23.89
2023-02-21T07:19:49.768Z,23.75
2023-02-21T07:20:49.747Z,23.63
2023-02-21T07:21:49.765Z,23.43
2023-02-21T07:22:49.734Z,23.26
2023-02-21T07:23:49.728Z,23.16
2023-02-21T07:24:49.702Z,23.27
2023-02-21T07:25:49.699Z,23.29
2023-02-21T07:26:50.360Z,23.34
2023-02-21T07:27:49.711Z,23.33
2023-02-21T07:28:49.726Z,23.43
2023-02-21T07:29:49.676Z,23.46
2023-02-21T07:30:49.734Z,23.64
2023-02-21T07:31:49.817Z,23.68
2023-02-21T07:32:49.587Z,23.77
2023-02-21T07:33:49.607Z,23.83
2023-02-21T07:34:49.570Z,23.78
2023-02-21T07:35:49.540Z,23.91
2023-02-21T07:36:49.536Z,23.97
2023-02-21T07:37:49.497Z,24.02
2023-02-21T07:38:49.478Z,24.01
2023-02-21T07:39:49.430Z,24.07
2023-02-21T07:40:49.404Z,24.13
2023-02-21T07:41:49.408Z,24.20
2023-02-21T07:42:49.353Z,24.25
2023-02-21T07:43:49.462Z,24.26
2023-02-21T07:44:49.664Z,24.30
2023-02-21T07:45:49.395Z,24.35
2023-02-21T07:46:49.286Z,24.37
2023-02-21T07:47:49.228Z,24.43
2023-02-21T07:48:49.236Z,24.49
2023-02-21T07:49:49.881Z,24.52
2023-02-21T07:50:49.143Z,24.52
2023-02-21T07:51:49.109Z,24.57
2023-02-21T07:52:49.049Z,24.62
2023-02-21T07:53:49.012Z,24.63
2023-02-21T07:54:49.904Z,24.64
2023-02-21T07:55:48.980Z,24.67
2023-02-21T07:56:48.979Z,24.68
2023-02-21T07:57:48.979Z,24.70
2023-02-21T07:58:48.914Z,24.71
2023-02-21T07:59:48.849Z,24.73
2023-02-21T08:00:49.359Z,24.73
2023-02-21T08:01:48.778Z,24.77
2023-02-21T08:02:48.709Z,24.75
2023-02-21T08:03:48.862Z,24.81
2023-02-21T08:04:48.789Z,24.82
2023-02-21T08:05:48.625Z,24.82
2023-02-21T08:06:48.580Z,24.87
2023-02-21T08:07:48.540Z,24.88
2023-02-21T08:08:48.493Z,24.87
2023-02-21T08:09:48.446Z,24.91
2023-02-21T08:10:48.409Z,24.88
2023-02-21T08:11:49.329Z,24.90
2023-02-21T08:12:48.340Z,24.91
2023-02-21T08:13:48.316Z,24.90
2023-02-21T08:14:48.326Z,24.92
2023-02-21T08:15:48.245Z,24.95
2023-02-21T08:16:48.192Z,24.92
2023-02-21T08:17:48.133Z,24.98
2023-02-21T08:18:48.156Z,24.99
2023-02-21T08:19:48.058Z,24.99
2023-02-21T08:20:48.017Z,25.01
2023-02-21T08:21:47.990Z,25.05
2023-02-21T08:22:48.450Z,24.99
2023-02-21T08:23:47.892Z,25.04
2023-02-21T08:24:47.830Z,25.08
2023-02-21T08:25:47.821Z,25.05
2023-02-21T08:26:47.776Z,25.07
2023-02-21T08:27:47.733Z,25.11
2023-02-21T08:28:47.698Z,25.12
2023-02-21T08:29:47.662Z,25.12
2023-02-21T08:30:47.607Z,25.14
2023-02-21T08:31:48.424Z,25.18
2023-02-21T08:32:47.582Z,25.19
2023-02-21T08:33:48.396Z,25.22
2023-02-21T08:34:47.474Z,25.28
2023-02-21T08:35:47.424Z,25.33
2023-02-21T08:36:47.381Z,25.36
2023-02-21T08:37:47.464Z,25.42
2023-02-21T08:38:48.752Z,25.43
2023-02-21T08:39:47.912Z,25.47
2023-02-21T08:40:47.305Z,25.50
2023-02-21T08:41:47.187Z,25.56
2023-02-21T08:42:47.095Z,25.60
2023-02-21T08:43:47.073Z,25.64
2023-02-21T08:44:47.015Z,25.66
2023-02-21T08:45:46.942Z,25.73
2023-02-21T08:46:48.977Z,25.77
2023-02-21T08:47:46.861Z,25.83
2023-02-21T08:48:46.775Z,25.85
2023-02-21T08:49:46.745Z,25.90
2023-02-21T08:50:46.677Z,25.92
2023-02-21T08:51:46.651Z,25.97
2023-02-21T08:52:46.625Z,25.98
2023-02-21T08:53:46.517Z,25.98
2023-02-21T08:54:46.507Z,26.04
2023-02-21T08:55:46.410Z,26.08
2023-02-21T08:56:46.406Z,26.09
2023-02-21T08:57:46.321Z,26.11
2023-02-21T08:58:46.243Z,26.12
2023-02-21T08:59:46.205Z,26.16
2023-02-21T09:00:46.183Z,26.16
2023-02-21T09:01:46.160Z,26.19
2023-02-21T09:02:46.838Z,26.24
2023-02-21T09:03:45.977Z,26.25
2023-02-21T09:04:45.936Z,26.25
2023-02-21T09:05:45.879Z,26.28
2023-02-21T09:06:45.904Z,26.29
2023-02-21T09:07:45.770Z,26.33
2023-02-21T09:08:45.710Z,26.35
2023-02-21T09:09:45.648Z,26.39
2023-02-21T09:10:46.360Z,26.36
2023-02-21T09:11:45.520Z,26.39
2023-02-21T09:12:45.473Z,26.42
2023-02-21T09:13:45.436Z,26.42
2023-02-21T09:14:45.353Z,26.42
2023-02-21T09:15:45.293Z,26.43
2023-02-21T09:16:47.730Z,26.44
2023-02-21T09:17:45.225Z,26.47
2023-02-21T09:18:45.362Z,26.47
2023-02-21T09:19:45.124Z,26.46
2023-02-21T09:20:45.059Z,26.46
2023-02-21T09:21:44.978Z,26.50
2023-02-21T09:22:44.875Z,26.47
2023-02-21T09:23:44.825Z,26.50
2023-02-21T09:24:44.775Z,26.52
2023-02-21T09:25:44.699Z,26.52
2023-02-21T09:26:44.664Z,26.52
2023-02-21T09:27:44.616Z,26.54
2023-02-21T09:28:44.547Z,26.56
2023-02-21T09:29:46.705Z,26.57
2023-02-21T09:30:44.486Z,26.59
2023-02-21T09:31:44.507Z,26.61
2023-02-21T09:32:44.382Z,26.60
2023-02-21T09:33:44.373Z,26.61
2023-02-21T09:34:44.240Z,26.63
2023-02-21T09:35:44.146Z,26.66
2023-02-21T09:36:44.087Z,26.66
2023-02-21T09:37:44.049Z,26.67
2023-02-21T09:38:44.878Z,26.70
2023-02-21T09:39:43.897Z,26.70
2023-02-21T09:40:43.863Z,26.70
2023-02-21T09:41:43.825Z,26.73
2023-02-21T09:42:43.770Z,26.73
2023-02-21T09:43:43.666Z,26.74
2023-02-21T09:44:43.623Z,26.77
2023-02-21T09:45:44.414Z,26.74
2023-02-21T09:46:43.487Z,26.78
2023-02-21T09:47:43.451Z,26.81
2023-02-21T09:48:43.346Z,26.81
2023-02-21T09:49:43.314Z,26.81
2023-02-21T09:50:43.267Z,26.83
2023-02-21T09:51:43.188Z,26.81
2023-02-21T09:52:43.179Z,26.86
2023-02-21T09:53:44.051Z,26.87
2023-02-21T09:54:42.998Z,26.84
2023-02-21T09:55:42.950Z,26.88
2023-02-21T09:56:42.934Z,26.84
2023-02-21T09:57:42.822Z,26.77
2023-02-21T09:58:42.757Z,26.80
2023-02-21T09:59:42.700Z,26.80
2023-02-21T10:00:46.157Z,26.81
2023-02-21T10:01:42.573Z,26.84
2023-02-21T10:02:42.536Z,26.84
2023-02-21T10:03:42.481Z,26.86
2023-02-21T10:04:42.412Z,26.87
2023-02-21T10:05:42.485Z,26.87
2023-02-21T10:06:42.286Z,26.88
2023-02-21T10:07:42.358Z,26.87
2023-02-21T10:08:42.193Z,26.87
2023-02-21T10:09:42.097Z,26.86
2023-02-21T10:10:42.050Z,26.91
2023-02-21T10:11:41.983Z,26.91
2023-02-21T10:12:41.919Z,26.90
2023-02-21T10:13:41.863Z,26.91
2023-02-21T10:14:41.784Z,26.91
2023-02-21T10:15:41.928Z,26.91
2023-02-21T10:16:41.724Z,26.91
2023-02-21T10:17:44.381Z,26.91
2023-02-21T10:18:41.659Z,26.94
2023-02-21T10:19:42.407Z,26.93
2023-02-21T10:20:41.865Z,26.91
2023-02-21T10:21:41.433Z,26.94
2023-02-21T10:22:41.321Z,26.94
2023-02-21T10:23:41.226Z,26.93
2023-02-21T10:24:41.146Z,26.94
2023-02-21T10:25:41.082Z,26.94
2023-02-21T10:26:41.043Z,26.94
2023-02-21T10:27:40.955Z,26.95
2023-02-21T10:28:40.885Z,26.93
2023-02-21T10:29:40.868Z,26.94
2023-02-21T10:30:41.023Z,26.91
2023-02-21T10:31:40.834Z,26.95
2023-02-21T10:32:40.691Z,26.94
2023-02-21T10:33:40.589Z,26.91
2023-02-21T10:34:40.528Z,26.94
2023-02-21T10:35:40.484Z,26.93
2023-02-21T10:36:40.394Z,26.91
2023-02-21T10:37:40.429Z,26.90
2023-02-21T10:38:40.316Z,26.90
2023-02-21T10:39:40.257Z,26.90
2023-02-21T10:40:48.895Z,26.90
2023-02-21T10:41:40.904Z,26.90
2023-02-21T10:42:40.022Z,26.91
2023-02-21T10:43:40.015Z,26.91
2023-02-21T10:44:39.922Z,26.91
2023-02-21T10:45:39.931Z,26.91
2023-02-21T10:46:39.791Z,26.93
2023-02-21T10:47:39.722Z,26.88
2023-02-21T10:48:41.403Z,26.91
2023-02-21T10:49:39.593Z,26.88
2023-02-21T10:50:39.530Z,26.90
2023-02-21T10:51:39.491Z,26.90
2023-02-21T10:52:39.429Z,26.90
2023-02-21T10:53:39.362Z,26.91
2023-02-21T10:54:39.298Z,26.91
2023-02-21T10:55:39.223Z,26.88
2023-02-21T10:56:39.176Z,26.88
2023-02-21T10:57:39.199Z,26.90
2023-02-21T10:58:39.045Z,26.90
2023-02-21T10:59:38.991Z,26.90
2023-02-21T11:00:39.001Z,26.90
2023-02-21T11:01:39.659Z,26.86
2023-02-21T11:02:39.824Z,26.90
2023-02-21T11:03:40.962Z,26.87
2023-02-21T11:04:45.073Z,26.91
2023-02-21T11:05:38.842Z,26.94
2023-02-21T11:06:38.942Z,26.87
2023-02-21T11:07:39.089Z,26.91
2023-02-21T11:08:38.548Z,26.93
2023-02-21T11:09:38.852Z,27.01
2023-02-21T11:10:45.045Z,26.98
2023-02-21T11:11:38.614Z,27.02
2023-02-21T11:12:38.253Z,27.04
2023-02-21T11:13:38.346Z,27.06
2023-02-21T11:14:38.159Z,27.06
2023-02-21T11:15:38.202Z,27.08
2023-02-21T11:16:38.004Z,27.08
2023-02-21T11:17:37.941Z,27.09
2023-02-21T11:18:37.948Z,27.05
2023-02-21T11:19:37.887Z,27.09
2023-02-21T11:20:38.656Z,27.12
2023-02-21T11:21:38.949Z,27.09
2023-02-21T11:22:37.660Z,27.11
2023-02-21T11:23:37.595Z,27.14
2023-02-21T11:24:37.510Z,27.11
2023-02-21T11:25:37.495Z,27.11
2023-02-21T11:26:37.655Z,27.09
2023-02-21T11:27:37.895Z,27.09
2023-02-21T11:28:37.285Z,27.11
2023-02-21T11:29:37.193Z,27.12
2023-02-21T11:30:37.241Z,27.09
2023-02-21T11:31:37.365Z,27.06
2023-02-21T11:32:37.104Z,27.08
2023-02-21T11:33:36.908Z,27.08
2023-02-21T11:34:36.824Z,27.09
2023-02-21T11:35:36.785Z,27.09
2023-02-21T11:36:36.912Z,27.08
2023-02-21T11:37:36.723Z,27.06
2023-02-21T11:38:36.698Z,27.08
2023-02-21T11:39:36.583Z,27.05
2023-02-21T11:40:36.597Z,27.05
2023-02-21T11:41:36.494Z,27.04
2023-02-21T11:42:36.898Z,26.99
2023-02-21T11:43:36.349Z,27.04
2023-02-21T11:44:37.284Z,27.01
2023-02-21T11:45:41.087Z,27.04
2023-02-21T11:46:36.121Z,27.04
2023-02-21T11:47:36.218Z,27.06
2023-02-21T11:49:36.500Z,27.08
2023-02-21T11:50:35.805Z,27.06
2023-02-21T11:51:35.804Z,27.08
2023-02-21T11:52:35.986Z,27.08
2023-02-21T11:53:36.429Z,27.11
2023-02-21T11:54:35.582Z,27.11
2023-02-21T11:55:35.525Z,27.12
2023-02-21T11:56:35.556Z,27.11
2023-02-21T11:57:35.439Z,27.11
2023-02-21T11:58:36.904Z,27.14
2023-02-21T11:59:35.284Z,27.06
2023-02-21T12:00:35.187Z,27.12
2023-02-21T12:44:06.046Z,26.98
2023-02-21T12:45:06.010Z,26.95
2023-02-21T12:46:06.064Z,26.97
2023-02-21T12:47:05.974Z,26.95
2023-02-21T12:48:05.946Z,26.93
2023-02-21T12:49:05.918Z,26.94
2023-02-21T12:50:05.865Z,26.91
2023-02-21T12:51:05.888Z,26.93
2023-02-21T12:52:05.788Z,26.91
2023-02-21T12:53:05.788Z,26.91
2023-02-21T12:54:05.834Z,26.91
2023-02-21T12:55:05.698Z,26.91
2023-02-21T12:56:05.671Z,26.91
2023-02-21T12:57:05.637Z,26.91
2023-02-21T12:58:05.629Z,26.90
2023-02-21T12:59:05.566Z,26.91
2023-02-21T13:00:05.611Z,26.90
2023-02-21T13:01:05.480Z,26.91
2023-02-21T13:02:05.527Z,26.87
2023-02-21T13:03:05.544Z,26.91
2023-02-21T13:04:05.403Z,26.90
2023-02-21T13:05:05.346Z,26.88
2023-02-21T13:06:05.321Z,26.88
2023-02-21T13:07:05.288Z,26.88
2023-02-21T13:08:05.266Z,26.87
2023-02-21T13:09:05.221Z,26.87
2023-02-21T13:10:05.236Z,26.84
2023-02-21T13:11:05.199Z,26.86
2023-02-21T13:12:05.131Z,26.84
2023-02-21T13:13:05.144Z,26.86
2023-02-21T13:14:05.115Z,26.84
2023-02-21T13:15:05.052Z,26.86
2023-02-21T13:16:05.045Z,26.84
2023-02-21T13:17:04.994Z,26.84
2023-02-21T13:18:04.975Z,26.86
2023-02-21T13:19:04.932Z,26.84
2023-02-21T13:20:04.885Z,26.81
2023-02-21T13:21:04.842Z,26.81
2023-02-21T13:22:04.814Z,26.83
2023-02-21T13:23:04.835Z,26.83
2023-02-21T16:23:59.829Z,26.35
2023-02-21T16:27:59.739Z,26.33
2023-02-21T16:28:59.700Z,26.35
2023-02-21T16:29:59.742Z,26.35
2023-02-21T16:30:59.677Z,26.33
2023-02-21T16:31:59.678Z,26.35
2023-02-21T16:32:59.620Z,26.33
2023-02-21T16:33:59.573Z,26.33
2023-02-21T16:34:59.587Z,26.32
2023-02-21T16:36:01.589Z,26.33
2023-02-21T16:37:59.496Z,26.32
2023-02-21T16:38:59.472Z,26.31